createdAt,value
2019-06-20T00:01:35.639Z,93.70
2019-06-20T00:04:05.379Z,93.70
2019-06-20T00:06:35.098Z,93.70
2019-06-20T00:09:06.955Z,93.70
2019-06-20T00:11:36.764Z,93.60
2019-06-20T00:14:06.490Z,93.70
2019-06-20T00:16:36.211Z,93.70
2019-06-20T00:19:06.017Z,93.90
2019-06-20T00:21:35.758Z,93.80
2019-06-20T00:24:05.584Z,93.90
2019-06-20T00:26:35.299Z,94.30
2019-06-20T00:29:07.022Z,94.00
2019-06-20T00:31:36.743Z,94.10
2019-06-20T00:34:06.512Z,94.20
2019-06-20T00:36:36.214Z,94.30
2019-06-20T00:39:08.203Z,94.20
2019-06-20T00:41:37.985Z,94.20
2019-06-20T00:44:07.761Z,94.30
2019-06-20T00:46:37.431Z,94.30
2019-06-20T00:49:07.137Z,94.30
2019-06-20T00:51:37.907Z,94.50
2019-06-20T00:54:08.611Z,94.50
2019-06-20T00:56:38.282Z,94.70
2019-06-20T00:59:07.994Z,94.60
2019-06-20T01:01:37.725Z,94.50
2019-06-20T01:04:08.780Z,94.50
2019-06-20T01:06:39.023Z,94.60
2019-06-20T01:09:09.342Z,94.60
2019-06-20T01:11:39.192Z,94.30
2019-06-20T01:14:08.912Z,94.60
2019-06-20T01:16:38.632Z,95.00
2019-06-20T01:19:08.354Z,95.30
2019-06-20T01:21:38.071Z,95.50
2019-06-20T01:24:07.831Z,95.50
2019-06-20T01:26:37.539Z,95.80
2019-06-20T01:29:07.262Z,95.50
2019-06-20T01:31:36.994Z,95.50
2019-06-20T01:34:06.706Z,95.60
2019-06-20T01:36:36.418Z,95.60
2019-06-20T01:39:07.826Z,95.60
2019-06-20T01:41:37.602Z,95.50
2019-06-20T01:44:07.311Z,95.70
2019-06-20T01:46:37.062Z,95.50
2019-06-20T01:49:06.704Z,95.60
2019-06-20T01:51:36.415Z,95.80
2019-06-20T01:54:06.159Z,95.50
2019-06-20T01:56:35.867Z,95.70
2019-06-20T01:59:05.734Z,95.80
2019-06-20T02:01:36.564Z,95.60
2019-06-20T02:04:06.599Z,95.60
2019-06-20T02:06:36.305Z,95.80
2019-06-20T02:09:08.442Z,95.80
2019-06-20T02:11:38.074Z,96.00
2019-06-20T02:14:07.946Z,96.20
2019-06-20T02:16:37.657Z,96.30
2019-06-20T02:19:07.370Z,96.60
2019-06-20T02:21:37.089Z,95.90
2019-06-20T02:24:07.224Z,95.70
2019-06-20T02:26:36.934Z,95.50
2019-06-20T02:29:06.666Z,95.30
2019-06-20T02:31:36.384Z,95.40
2019-06-20T02:34:06.116Z,95.60
2019-06-20T02:36:35.861Z,95.90
2019-06-20T02:39:07.247Z,95.90
2019-06-20T02:41:37.088Z,95.30
2019-06-20T02:44:24.753Z,95.00
2019-06-20T02:46:38.287Z,95.30
2019-06-20T02:49:08.008Z,95.90
2019-06-20T02:51:38.054Z,96.40
2019-06-20T02:54:07.771Z,96.50
2019-06-20T02:56:37.486Z,96.70
2019-06-20T02:59:07.129Z,97.00
2019-06-20T03:01:36.843Z,97.50
2019-06-20T03:04:06.618Z,97.40
2019-06-20T03:06:36.249Z,97.80
2019-06-20T03:09:07.190Z,97.60
2019-06-20T03:11:36.903Z,97.40
2019-06-20T03:14:06.616Z,97.10
2019-06-20T03:16:36.334Z,96.90
2019-06-20T03:19:15.368Z,96.70
2019-06-20T03:21:45.075Z,96.80
2019-06-20T03:24:14.705Z,96.80
2019-06-20T03:26:45.242Z,96.90
2019-06-20T03:29:14.950Z,97.00
2019-06-20T03:31:44.662Z,97.10
2019-06-20T03:34:14.376Z,97.10
2019-06-20T03:36:44.088Z,97.00
2019-06-20T03:39:13.839Z,97.00
2019-06-20T03:41:43.559Z,96.80
2019-06-20T03:44:13.297Z,96.90
2019-06-20T03:46:43.001Z,96.70
2019-06-20T03:49:13.739Z,96.80
2019-06-20T03:51:43.410Z,96.90
2019-06-20T03:54:13.125Z,96.90
2019-06-20T03:56:42.838Z,96.90
2019-06-20T03:59:12.598Z,97.00
2019-06-20T04:01:42.243Z,97.10
2019-06-20T04:04:11.977Z,97.10
2019-06-20T04:06:41.691Z,97.10
2019-06-20T04:09:11.414Z,97.30
2019-06-20T04:11:41.133Z,97.40
2019-06-20T04:14:10.846Z,97.50
2019-06-20T04:16:40.543Z,97.40
2019-06-20T04:19:10.520Z,97.50
2019-06-20T04:21:40.277Z,97.50
2019-06-20T04:24:09.984Z,97.30
2019-06-20T04:26:39.895Z,97.30
2019-06-20T04:29:09.643Z,97.30
2019-06-20T04:31:39.363Z,97.00
2019-06-20T04:34:09.116Z,96.70
2019-06-20T04:36:38.823Z,96.50
2019-06-20T04:39:18.636Z,96.20
2019-06-20T04:41:39.126Z,96.20
2019-06-20T04:44:08.679Z,95.80
2019-06-20T04:46:48.706Z,95.60
2019-06-20T04:49:19.856Z,95.40
2019-06-20T04:51:49.783Z,95.10
2019-06-20T04:54:19.560Z,95.00
2019-06-20T04:56:49.348Z,94.90
2019-06-20T04:59:19.165Z,94.60
2019-06-20T05:01:48.887Z,94.70
2019-06-20T05:04:18.594Z,94.60
2019-06-20T05:06:51.288Z,94.70
2019-06-20T05:09:21.004Z,94.40
2019-06-20T05:11:50.724Z,94.30
2019-06-20T05:14:20.466Z,94.10
2019-06-20T05:16:50.191Z,93.80
2019-06-20T05:19:19.902Z,93.80
2019-06-20T05:21:50.530Z,93.60
2019-06-20T05:24:20.238Z,93.20
2019-06-20T05:26:49.998Z,93.00
2019-06-20T05:29:19.710Z,93.40
2019-06-20T05:31:49.359Z,93.20
2019-06-20T05:34:19.079Z,93.30
2019-06-20T05:36:48.831Z,93.40
2019-06-20T05:39:19.552Z,93.20
2019-06-20T05:41:49.296Z,93.30
2019-06-20T05:44:19.042Z,93.50
2019-06-20T05:46:48.663Z,93.60
2019-06-20T05:49:19.051Z,93.50
2019-06-20T05:51:48.798Z,93.70
2019-06-20T05:54:18.534Z,93.60
2019-06-20T05:56:48.170Z,93.30
2019-06-20T05:59:17.919Z,93.10
2019-06-20T06:01:47.636Z,93.10
2019-06-20T06:04:17.372Z,92.50
2019-06-20T06:06:47.567Z,92.50
2019-06-20T06:09:18.335Z,92.50
2019-06-20T06:11:48.355Z,92.50
2019-06-20T06:14:18.064Z,92.10
2019-06-20T06:16:47.802Z,91.90
2019-06-20T06:19:18.522Z,91.80
2019-06-20T06:21:48.288Z,91.80
2019-06-20T06:24:17.994Z,91.00
2019-06-20T06:26:47.713Z,90.30
2019-06-20T06:29:17.426Z,90.10
2019-06-20T06:31:47.174Z,90.10
2019-06-20T06:34:16.897Z,89.80
2019-06-20T06:36:46.622Z,88.80
2019-06-20T06:39:16.339Z,89.40
2019-06-20T06:41:46.058Z,88.60
2019-06-20T06:44:15.814Z,88.70
2019-06-20T06:46:53.262Z,87.90
2019-06-20T06:49:16.042Z,88.80
2019-06-20T06:51:45.670Z,89.20
2019-06-20T06:54:15.361Z,89.20
2019-06-20T06:56:45.041Z,89.10
2019-06-20T06:59:14.754Z,89.60
2019-06-20T07:01:44.531Z,89.30
2019-06-20T07:04:14.241Z,90.20
2019-06-20T07:06:44.013Z,89.20
2019-06-20T07:09:13.727Z,88.50
2019-06-20T07:11:43.443Z,89.40
2019-06-20T07:14:13.162Z,89.40
2019-06-20T07:16:50.914Z,89.80
2019-06-20T07:19:14.174Z,90.20
2019-06-20T07:21:43.857Z,89.80
2019-06-20T07:24:14.356Z,90.00
2019-06-20T07:26:44.118Z,89.50
2019-06-20T07:29:13.831Z,89.80
2019-06-20T07:31:43.544Z,89.10
2019-06-20T07:34:13.535Z,89.10
2019-06-20T07:36:43.239Z,90.10
2019-06-20T07:39:13.002Z,90.00
2019-06-20T07:41:42.651Z,90.00
2019-06-20T07:44:12.377Z,90.00
2019-06-20T07:46:42.086Z,90.00
2019-06-20T07:49:11.735Z,89.60
2019-06-20T07:51:41.449Z,88.60
2019-06-20T07:54:11.176Z,89.30
2019-06-20T07:56:40.935Z,89.20
2019-06-20T07:59:11.651Z,89.50
2019-06-20T08:01:41.776Z,89.70
2019-06-20T08:04:11.482Z,89.20
2019-06-20T08:06:41.231Z,89.00
2019-06-20T08:09:10.955Z,87.50
2019-06-20T08:11:40.674Z,88.00
2019-06-20T08:14:10.403Z,87.70
2019-06-20T08:16:40.130Z,88.30
2019-06-20T08:19:09.901Z,87.70
2019-06-20T08:21:39.878Z,88.30
2019-06-20T08:24:09.594Z,87.30
2019-06-20T08:26:39.316Z,87.60
2019-06-20T08:29:20.308Z,87.70
2019-06-20T08:31:40.403Z,86.90
2019-06-20T08:34:10.111Z,87.70
2019-06-20T08:36:39.888Z,86.90
2019-06-20T08:39:10.502Z,87.50
2019-06-20T08:41:40.215Z,87.80
2019-06-20T08:44:11.067Z,86.80
2019-06-20T08:46:40.799Z,86.90
2019-06-20T08:49:10.510Z,87.00
2019-06-20T08:51:40.270Z,86.10
2019-06-20T08:54:09.979Z,86.40
2019-06-20T08:56:39.702Z,85.50
2019-06-20T08:59:23.373Z,86.00
2019-06-20T09:01:40.790Z,86.20
2019-06-20T09:04:10.519Z,86.00
2019-06-20T09:06:40.266Z,85.90
2019-06-20T09:09:09.978Z,87.00
2019-06-20T09:11:39.617Z,86.60
2019-06-20T09:14:09.354Z,86.10
2019-06-20T09:16:38.998Z,85.40
2019-06-20T09:19:08.708Z,86.40
2019-06-20T09:21:38.468Z,85.70
2019-06-20T09:24:08.174Z,85.40
2019-06-20T09:26:38.967Z,85.00
2019-06-20T09:29:08.843Z,84.70
2019-06-20T09:31:38.550Z,84.70
2019-06-20T09:34:08.267Z,85.50
2019-06-20T09:36:37.986Z,82.80
2019-06-20T09:39:07.707Z,82.40
2019-06-20T09:41:37.382Z,83.20
2019-06-20T09:44:07.095Z,83.00
2019-06-20T09:46:36.867Z,83.00
2019-06-20T09:49:06.580Z,83.00
2019-06-20T09:51:36.302Z,82.50
2019-06-20T09:54:06.031Z,82.90
2019-06-20T09:56:35.757Z,82.10
2019-06-20T09:59:05.507Z,81.70
2019-06-20T10:01:35.223Z,81.20
2019-06-20T10:04:06.788Z,80.70
2019-06-20T10:06:37.612Z,78.60
2019-06-20T10:09:08.965Z,78.10
2019-06-20T10:11:38.671Z,75.60
2019-06-20T10:14:09.031Z,77.40
2019-06-20T10:16:45.627Z,77.90
2019-06-20T10:19:13.222Z,79.50
2019-06-20T10:21:42.015Z,79.00
2019-06-20T10:24:11.760Z,77.20
2019-06-20T10:26:41.487Z,75.20
2019-06-20T10:29:11.482Z,77.40
2019-06-20T10:31:41.205Z,75.90
2019-06-20T10:34:10.915Z,75.70
2019-06-20T10:36:40.683Z,75.80
2019-06-20T10:39:11.703Z,74.50
2019-06-20T10:41:41.457Z,73.10
2019-06-20T10:44:11.183Z,72.20
2019-06-20T10:46:40.919Z,72.10
2019-06-20T10:49:10.903Z,73.50
2019-06-20T10:51:47.589Z,73.60
2019-06-20T10:54:17.510Z,72.00
2019-06-20T10:56:47.312Z,72.10
2019-06-20T10:59:16.963Z,72.00
2019-06-20T11:01:46.811Z,70.80
2019-06-20T11:04:16.514Z,71.40
2019-06-20T11:06:47.521Z,69.00
2019-06-20T11:09:16.534Z,68.00
2019-06-20T11:11:47.117Z,68.90
2019-06-20T11:14:16.932Z,69.20
2019-06-20T11:16:47.185Z,67.50
2019-06-20T11:19:16.890Z,67.20
2019-06-20T11:21:47.742Z,66.40
2019-06-20T11:24:18.575Z,68.50
2019-06-20T11:26:50.118Z,66.40
2019-06-20T11:29:19.840Z,65.30
2019-06-20T11:31:49.700Z,64.10
2019-06-20T11:34:20.363Z,63.90
2019-06-20T11:36:50.091Z,61.00
2019-06-20T11:39:19.830Z,60.80
2019-06-20T11:41:49.473Z,60.70
2019-06-20T11:44:19.194Z,62.70
2019-06-20T11:46:48.918Z,60.70
2019-06-20T11:49:18.623Z,59.40
2019-06-20T11:51:48.367Z,60.80
2019-06-20T11:54:18.082Z,58.80
2019-06-20T11:56:47.827Z,59.40
2019-06-20T11:59:17.535Z,59.00
2019-06-20T12:01:47.327Z,58.80
2019-06-20T12:04:16.974Z,58.10
2019-06-20T12:06:47.151Z,58.00
2019-06-20T12:09:18.030Z,58.20
2019-06-20T12:11:48.888Z,58.60
2019-06-20T12:14:19.666Z,55.50
2019-06-20T12:16:50.237Z,57.30
2019-06-20T12:19:19.979Z,57.40
2019-06-20T12:21:49.697Z,57.30
2019-06-20T12:24:19.411Z,58.00
2019-06-20T12:26:49.122Z,56.80
2019-06-20T12:29:18.850Z,54.00
2019-06-20T12:31:48.594Z,52.90
2019-06-20T12:34:18.239Z,51.10
2019-06-20T12:36:48.584Z,48.90
2019-06-20T12:39:18.479Z,49.20
2019-06-20T12:41:48.246Z,51.50
2019-06-20T12:44:17.962Z,52.30
2019-06-20T12:46:47.591Z,54.70
2019-06-20T12:49:17.349Z,51.60
2019-06-20T12:51:47.111Z,54.30
2019-06-20T12:54:16.907Z,53.40
2019-06-20T12:56:46.621Z,53.50
2019-06-20T12:59:16.611Z,53.40
2019-06-20T13:01:48.396Z,52.10
2019-06-20T13:04:17.658Z,52.40
2019-06-20T13:06:47.401Z,52.50
2019-06-20T13:09:17.094Z,53.10
2019-06-20T13:11:47.043Z,54.90
2019-06-20T13:14:16.766Z,56.60
2019-06-20T13:16:48.072Z,55.80
2019-06-20T13:19:18.038Z,55.70
2019-06-20T13:21:48.626Z,55.60
2019-06-20T13:24:18.368Z,56.60
2019-06-20T13:26:49.081Z,56.70
2019-06-20T13:29:19.462Z,55.70
2019-06-20T13:32:02.148Z,55.50
2019-06-20T13:34:20.543Z,56.40
2019-06-20T13:36:50.298Z,55.70
2019-06-20T13:39:20.062Z,55.50
2019-06-20T13:41:50.289Z,56.00
2019-06-20T13:44:20.058Z,55.80
2019-06-20T13:46:50.775Z,55.60
2019-06-20T13:49:20.517Z,56.20
2019-06-20T13:51:50.308Z,57.00
2019-06-20T13:54:20.024Z,56.50
2019-06-20T13:56:51.810Z,56.30
2019-06-20T13:59:21.762Z,55.80
2019-06-20T14:02:05.864Z,55.70
2019-06-20T14:04:22.903Z,56.60
2019-06-20T14:06:53.809Z,56.20
2019-06-20T14:09:24.577Z,57.70
2019-06-20T14:11:54.291Z,58.10
2019-06-20T14:14:24.442Z,56.00
2019-06-20T14:16:54.154Z,54.70
2019-06-20T14:19:23.830Z,55.20
2019-06-20T14:21:54.315Z,55.40
2019-06-20T14:24:24.099Z,55.60
2019-06-20T14:26:54.583Z,56.00
2019-06-20T14:29:24.489Z,57.10
2019-06-20T14:31:54.196Z,56.20
2019-06-20T14:34:23.943Z,56.50
2019-06-20T14:36:54.007Z,56.40
2019-06-20T14:39:23.902Z,56.00
2019-06-20T14:41:53.619Z,55.50
2019-06-20T14:44:23.336Z,55.40
2019-06-20T14:46:54.267Z,55.00
2019-06-20T14:49:23.215Z,55.50
2019-06-20T14:51:52.893Z,55.90
2019-06-20T14:54:22.611Z,55.90
2019-06-20T14:56:52.337Z,55.70
2019-06-20T14:59:22.046Z,55.10
2019-06-20T15:01:52.621Z,55.70
2019-06-20T15:04:22.423Z,54.40
2019-06-20T15:06:54.681Z,56.10
2019-06-20T15:09:24.579Z,57.10
2019-06-20T15:11:55.084Z,57.50
2019-06-20T15:14:24.943Z,56.30
2019-06-20T15:16:55.414Z,56.00
2019-06-20T15:19:25.255Z,56.60
2019-06-20T15:21:56.340Z,57.10
2019-06-20T15:24:26.414Z,57.40
2019-06-20T15:26:56.495Z,57.40
2019-06-20T15:29:27.259Z,57.00
2019-06-20T15:31:57.079Z,57.20
2019-06-20T15:34:26.849Z,57.50
2019-06-20T15:36:57.789Z,58.20
2019-06-20T15:39:27.686Z,57.50
2019-06-20T15:41:58.240Z,56.00
2019-06-20T15:44:28.043Z,55.70
2019-06-20T15:46:57.746Z,56.00
2019-06-20T15:49:27.907Z,55.70
2019-06-20T15:51:59.119Z,56.90
2019-06-20T15:54:28.979Z,56.10
2019-06-20T15:56:58.754Z,55.60
2019-06-20T15:59:28.454Z,55.70
2019-06-20T16:01:58.208Z,55.10
2019-06-20T16:04:27.923Z,55.60
2019-06-20T16:06:57.734Z,56.10
2019-06-20T16:09:27.463Z,57.10
2019-06-20T16:11:57.226Z,56.90
2019-06-20T16:14:27.025Z,57.30
2019-06-20T16:16:56.733Z,57.50
2019-06-20T16:19:26.510Z,58.20
2019-06-20T16:21:56.177Z,59.10
2019-06-20T16:24:25.886Z,59.00
2019-06-20T16:26:55.898Z,59.40
2019-06-20T16:29:25.610Z,60.00
2019-06-20T16:31:55.377Z,60.20
2019-06-20T16:34:25.094Z,60.60
2019-06-20T16:37:09.186Z,60.60
2019-06-20T16:39:26.186Z,61.30
2019-06-20T16:41:55.934Z,61.90
2019-06-20T16:44:25.690Z,62.40
2019-06-20T16:46:55.354Z,62.30
2019-06-20T16:49:26.057Z,62.30
2019-06-20T16:51:55.759Z,67.40
2019-06-20T16:54:25.568Z,75.10
2019-06-20T16:56:55.288Z,79.00
2019-06-20T16:59:25.139Z,85.40
2019-06-20T17:01:54.845Z,85.90
2019-06-20T17:04:24.551Z,84.30
2019-06-20T17:06:54.263Z,84.10
2019-06-20T17:09:23.971Z,87.10
2019-06-20T17:11:53.727Z,92.10
2019-06-20T17:14:23.431Z,94.00
2019-06-20T17:16:53.178Z,93.20
2019-06-20T17:19:22.908Z,92.40
2019-06-20T17:21:52.608Z,95.20
2019-06-20T17:24:22.335Z,96.60
2019-06-20T17:26:52.046Z,97.80
2019-06-20T17:29:21.719Z,98.80
2019-06-20T17:31:51.459Z,99.70
2019-06-20T17:34:21.463Z,99.90
2019-06-20T17:36:51.172Z,99.90
2019-06-20T17:39:20.931Z,99.90
2019-06-20T17:41:55.338Z,99.90
2019-06-20T17:44:22.023Z,99.90
2019-06-20T17:46:51.746Z,99.90
2019-06-20T17:49:21.575Z,99.90
2019-06-20T17:51:51.312Z,99.90
2019-06-20T17:54:21.036Z,99.90
2019-06-20T17:56:50.805Z,99.90
2019-06-20T17:59:22.654Z,99.90
2019-06-20T18:01:51.889Z,99.90
2019-06-20T18:04:21.609Z,99.90
2019-06-20T18:06:51.326Z,99.90
2019-06-20T18:09:21.047Z,99.90
2019-06-20T18:11:50.769Z,99.90
2019-06-20T18:14:20.531Z,99.90
2019-06-20T18:16:50.256Z,99.90
2019-06-20T18:19:19.998Z,99.90
2019-06-20T18:21:49.662Z,99.90
2019-06-20T18:24:19.372Z,99.90
2019-06-20T18:26:49.090Z,99.90
2019-06-20T18:29:18.852Z,99.90
2019-06-20T18:31:48.582Z,99.90
2019-06-20T18:34:29.932Z,99.90
2019-06-20T18:36:54.327Z,99.90
2019-06-20T18:39:24.082Z,99.90
2019-06-20T18:41:53.815Z,99.90
2019-06-20T18:44:23.519Z,99.90
2019-06-20T18:46:53.245Z,99.90
2019-06-20T18:49:22.964Z,99.90
2019-06-20T18:51:52.729Z,99.90
2019-06-20T18:54:23.150Z,99.90
2019-06-20T18:56:53.180Z,99.90
2019-06-20T18:59:22.915Z,99.90
2019-06-20T19:01:52.641Z,99.90
2019-06-20T19:04:22.422Z,99.90
2019-06-20T19:06:52.080Z,99.90
2019-06-20T19:09:21.830Z,99.90
2019-06-20T19:11:51.538Z,99.90
2019-06-20T19:14:21.323Z,99.90
2019-06-20T19:16:50.982Z,99.90
2019-06-20T19:19:20.947Z,99.90
2019-06-20T19:21:50.852Z,99.90
2019-06-20T19:24:20.566Z,99.90
2019-06-20T19:26:50.556Z,99.90
2019-06-20T19:29:20.278Z,99.90
2019-06-20T19:31:50.045Z,99.90
2019-06-20T19:34:19.762Z,99.90
2019-06-20T19:36:49.498Z,99.90
2019-06-20T19:39:19.216Z,99.90
2019-06-20T19:41:48.947Z,99.90
2019-06-20T19:44:18.723Z,99.90
2019-06-20T19:46:48.444Z,99.90
2019-06-20T19:49:18.198Z,99.90
2019-06-20T19:51:47.922Z,99.90
2019-06-20T19:54:17.638Z,99.90
2019-06-20T19:56:47.368Z,99.90
2019-06-20T19:59:17.219Z,99.90
2019-06-20T20:01:46.928Z,99.90
2019-06-20T20:04:17.949Z,99.90
2019-06-20T20:06:47.655Z,99.90
2019-06-20T20:09:17.384Z,99.90
2019-06-20T20:11:47.102Z,99.90
2019-06-20T20:14:16.814Z,99.90
2019-06-20T20:16:46.573Z,99.90
2019-06-20T20:19:16.291Z,99.90
2019-06-20T20:21:46.059Z,99.90
2019-06-20T20:24:16.039Z,99.90
2019-06-20T20:26:45.778Z,99.90
2019-06-20T20:29:15.496Z,99.90
2019-06-20T20:31:46.354Z,99.90
2019-06-20T20:34:15.995Z,99.90
2019-06-20T20:36:45.719Z,99.90
2019-06-20T20:39:17.024Z,99.90
2019-06-20T20:41:47.240Z,99.90
2019-06-20T20:44:16.963Z,99.90
2019-06-20T20:46:46.695Z,99.90
2019-06-20T20:49:16.418Z,99.90
2019-06-20T20:51:46.130Z,99.90
2019-06-20T20:54:15.886Z,99.90
2019-06-20T20:56:45.608Z,99.90
2019-06-20T20:59:15.330Z,99.90
2019-06-20T21:01:44.978Z,99.90
2019-06-20T21:04:14.688Z,99.90
2019-06-20T21:06:44.727Z,99.90
2019-06-20T21:09:14.444Z,99.90
2019-06-20T21:11:44.186Z,99.90
2019-06-20T21:14:13.894Z,99.90
2019-06-20T21:16:43.534Z,99.90
2019-06-20T21:19:13.254Z,99.90
2019-06-20T21:21:43.004Z,99.90
2019-06-20T21:24:12.718Z,99.90
2019-06-20T21:26:49.535Z,99.90
2019-06-20T21:29:13.778Z,99.90
2019-06-20T21:31:43.499Z,99.90
2019-06-20T21:34:13.272Z,99.90
2019-06-20T21:36:42.990Z,99.90
2019-06-20T21:39:12.709Z,99.90
2019-06-20T21:41:42.430Z,99.90
2019-06-20T21:44:12.154Z,99.90
2019-06-20T21:46:41.903Z,99.90
2019-06-20T21:49:11.619Z,99.90
2019-06-20T21:51:44.532Z,99.90
2019-06-20T21:54:12.679Z,99.90
2019-06-20T21:56:42.386Z,99.90
2019-06-20T21:59:12.144Z,99.90
2019-06-20T22:01:41.859Z,99.90
2019-06-20T22:04:11.962Z,99.90
2019-06-20T22:06:41.692Z,99.90
2019-06-20T22:09:11.403Z,99.90
2019-06-20T22:11:42.560Z,99.90
2019-06-20T22:14:12.266Z,99.90
2019-06-20T22:16:42.013Z,99.90
2019-06-20T22:19:11.654Z,99.90
2019-06-20T22:21:41.370Z,99.90
2019-06-20T22:24:11.098Z,99.90
2019-06-20T22:26:40.842Z,99.90
2019-06-20T22:29:10.572Z,99.90
2019-06-20T22:31:40.302Z,99.90
2019-06-20T22:34:10.032Z,99.90
2019-06-20T22:36:40.798Z,99.90
2019-06-20T22:39:11.801Z,99.90
2019-06-20T22:41:41.622Z,99.90
2019-06-20T22:44:14.327Z,99.90
2019-06-20T22:46:44.043Z,99.90
2019-06-20T22:49:13.827Z,99.90
2019-06-20T22:51:43.543Z,99.90
2019-06-20T22:54:13.254Z,99.90
2019-06-20T22:56:42.982Z,99.90
2019-06-20T22:59:12.710Z,99.90
2019-06-20T23:01:42.434Z,99.90
2019-06-20T23:04:12.150Z,99.90
2019-06-20T23:06:55.456Z,99.90
2019-06-20T23:09:13.242Z,99.90
2019-06-20T23:11:42.990Z,99.90
2019-06-20T23:14:12.724Z,99.90
2019-06-20T23:16:42.438Z,99.90
2019-06-20T23:19:12.168Z,99.90
2019-06-20T23:21:41.938Z,99.90
2019-06-20T23:24:11.663Z,99.90
2019-06-20T23:26:41.378Z,99.90
2019-06-20T23:29:23.116Z,99.90
2019-06-20T23:31:52.413Z,99.90
2019-06-20T23:34:22.054Z,99.90
2019-06-20T23:36:52.233Z,99.90
2019-06-20T23:39:21.954Z,99.90
2019-06-20T23:41:51.678Z,99.90
2019-06-20T23:44:21.395Z,99.90
2019-06-20T23:46:51.151Z,99.90
2019-06-20T23:49:20.790Z,99.90
2019-06-20T23:51:54.754Z,99.90
2019-06-20T23:54:24.474Z,99.90
2019-06-20T23:56:54.247Z,99.90
2019-06-20T23:59:23.959Z,99.90
